sensor_id;sensor_type;location;lat;lon;timestamp;pressure;altitude;pressure_sealevel;temperature;humidity
77003;BME280;65939;50.060;14.288;2023-08-01T00:00:09;96360.06;;;19.06;82.19
77003;BME280;65939;50.060;14.288;2023-08-01T00:02:11;96350.78;;;19.03;82.33
77003;BME280;65939;50.060;14.288;2023-08-01T00:04:11;96353.09;;;19.00;81.96
77003;BME280;65939;50.060;14.288;2023-08-01T00:06:12;96350.09;;;18.96;82.55
77003;BME280;65939;50.060;14.288;2023-08-01T00:08:14;96342.63;;;18.93;83.43
77003;BME280;65939;50.060;14.288;2023-08-01T00:10:14;96343.63;;;18.92;82.88
77003;BME280;65939;50.060;14.288;2023-08-01T00:12:16;96344.69;;;18.91;83.46
77003;BME280;65939;50.060;14.288;2023-08-01T00:14:17;96333.53;;;18.89;82.83
77003;BME280;65939;50.060;14.288;2023-08-01T00:16:19;96331.13;;;18.87;82.64
77003;BME280;65939;50.060;14.288;2023-08-01T00:18:20;96332.72;;;18.88;82.65
77003;BME280;65939;50.060;14.288;2023-08-01T00:20:21;96317.69;;;18.89;83.62
77003;BME280;65939;50.060;14.288;2023-08-01T00:22:22;96322.97;;;18.89;83.26
77003;BME280;65939;50.060;14.288;2023-08-01T00:24:22;96319.50;;;18.88;83.75
77003;BME280;65939;50.060;14.288;2023-08-01T00:26:23;96312.59;;;18.87;83.72
77003;BME280;65939;50.060;14.288;2023-08-01T00:28:24;96304.09;;;18.85;83.84
77003;BME280;65939;50.060;14.288;2023-08-01T00:30:24;96306.75;;;18.85;84.36
77003;BME280;65939;50.060;14.288;2023-08-01T00:32:25;96293.16;;;18.82;84.57
77003;BME280;65939;50.060;14.288;2023-08-01T00:34:26;96290.75;;;18.80;84.53
77003;BME280;65939;50.060;14.288;2023-08-01T00:36:26;96280.97;;;18.81;84.00
77003;BME280;65939;50.060;14.288;2023-08-01T00:38:27;96283.63;;;18.81;84.43
77003;BME280;65939;50.060;14.288;2023-08-01T00:40:32;96285.47;;;18.80;84.52
77003;BME280;65939;50.060;14.288;2023-08-01T00:42:35;96287.31;;;18.80;84.86
77003;BME280;65939;50.060;14.288;2023-08-01T00:44:37;96286.53;;;18.79;85.54
77003;BME280;65939;50.060;14.288;2023-08-01T00:46:37;96276.16;;;18.78;85.08
77003;BME280;65939;50.060;14.288;2023-08-01T00:48:38;96278.25;;;18.76;86.10
77003;BME280;65939;50.060;14.288;2023-08-01T00:50:39;96268.13;;;18.73;85.74
77003;BME280;65939;50.060;14.288;2023-08-01T00:52:40;96274.47;;;18.72;85.76
77003;BME280;65939;50.060;14.288;2023-08-01T00:54:41;96267.50;;;18.71;86.21
77003;BME280;65939;50.060;14.288;2023-08-01T00:56:42;96269.34;;;18.70;85.60
77003;BME280;65939;50.060;14.288;2023-08-01T00:58:43;96264.06;;;18.70;85.50
77003;BME280;65939;50.060;14.288;2023-08-01T01:00:45;96256.38;;;18.69;85.88
77003;BME280;65939;50.060;14.288;2023-08-01T01:02:46;96261.88;;;18.67;85.60
77003;BME280;65939;50.060;14.288;2023-08-01T01:04:47;96248.91;;;18.65;85.76
77003;BME280;65939;50.060;14.288;2023-08-01T01:06:53;96251.75;;;18.64;86.10
77003;BME280;65939;50.060;14.288;2023-08-01T01:08:56;96261.31;;;18.65;85.39
77003;BME280;65939;50.060;14.288;2023-08-01T01:10:57;96255.25;;;18.64;85.69
77003;BME280;65939;50.060;14.288;2023-08-01T01:12:57;96246.47;;;18.64;85.40
77003;BME280;65939;50.060;14.288;2023-08-01T01:14:58;96249.94;;;18.64;85.15
77003;BME280;65939;50.060;14.288;2023-08-01T01:16:59;96246.25;;;18.65;85.70
77003;BME280;65939;50.060;14.288;2023-08-01T01:19:00;96246.25;;;18.65;85.32
77003;BME280;65939;50.060;14.288;2023-08-01T01:21:00;96246.00;;;18.67;85.13
77003;BME280;65939;50.060;14.288;2023-08-01T01:23:04;96243.16;;;18.69;85.32
77003;BME280;65939;50.060;14.288;2023-08-01T01:25:07;96246.59;;;18.69;84.97
77003;BME280;65939;50.060;14.288;2023-08-01T01:27:09;96243.16;;;18.69;84.86
77003;BME280;65939;50.060;14.288;2023-08-01T01:29:11;96236.59;;;18.71;84.84
77003;BME280;65939;50.060;14.288;2023-08-01T01:31:13;96236.38;;;18.73;84.45
77003;BME280;65939;50.060;14.288;2023-08-01T01:33:15;96222.94;;;18.74;84.74
77003;BME280;65939;50.060;14.288;2023-08-01T01:35:16;96222.72;;;18.76;84.08
77003;BME280;65939;50.060;14.288;2023-08-01T01:37:17;96218.22;;;18.76;84.73
77003;BME280;65939;50.060;14.288;2023-08-01T01:39:18;96207.41;;;18.78;84.40
77003;BME280;65939;50.060;14.288;2023-08-01T01:41:18;96202.69;;;18.80;85.01
77003;BME280;65939;50.060;14.288;2023-08-01T01:43:19;96194.75;;;18.80;84.51
77003;BME280;65939;50.060;14.288;2023-08-01T01:45:20;96191.06;;;18.81;84.77
77003;BME280;65939;50.060;14.288;2023-08-01T01:47:20;96191.88;;;18.81;84.58
77003;BME280;65939;50.060;14.288;2023-08-01T01:49:21;96190.59;;;18.84;84.53
77003;BME280;65939;50.060;14.288;2023-08-01T01:51:22;96184.50;;;18.83;84.52
77003;BME280;65939;50.060;14.288;2023-08-01T01:53:22;96178.44;;;18.83;84.94
77003;BME280;65939;50.060;14.288;2023-08-01T01:55:23;96175.53;;;18.84;84.95
77003;BME280;65939;50.060;14.288;2023-08-01T01:57:24;96169.69;;;18.82;85.21
77003;BME280;65939;50.060;14.288;2023-08-01T01:59:24;96169.91;;;18.81;85.39
77003;BME280;65939;50.060;14.288;2023-08-01T02:01:25;96172.00;;;18.79;84.69
77003;BME280;65939;50.060;14.288;2023-08-01T02:03:26;96158.19;;;18.77;85.62
77003;BME280;65939;50.060;14.288;2023-08-01T02:05:26;96152.09;;;18.76;85.69
77003;BME280;65939;50.060;14.288;2023-08-01T02:07:27;96154.97;;;18.75;86.02
77003;BME280;65939;50.060;14.288;2023-08-01T02:09:28;96146.50;;;18.73;85.04
77003;BME280;65939;50.060;14.288;2023-08-01T02:11:28;96146.50;;;18.73;85.75
77003;BME280;65939;50.060;14.288;2023-08-01T02:13:31;96145.44;;;18.74;85.63
77003;BME280;65939;50.060;14.288;2023-08-01T02:15:32;96140.41;;;18.72;85.46
77003;BME280;65939;50.060;14.288;2023-08-01T02:17:33;96145.69;;;18.72;85.58
77003;BME280;65939;50.060;14.288;2023-08-01T02:19:33;96146.72;;;18.71;84.99
77003;BME280;65939;50.060;14.288;2023-08-01T02:21:34;96149.34;;;18.71;85.54
77003;BME280;65939;50.060;14.288;2023-08-01T02:23:35;96139.78;;;18.70;85.91
77003;BME280;65939;50.060;14.288;2023-08-01T02:25:41;96140.03;;;18.69;85.41
77003;BME280;65939;50.060;14.288;2023-08-01T02:27:41;96146.13;;;18.69;86.45
77003;BME280;65939;50.060;14.288;2023-08-01T02:29:42;96139.69;;;18.65;86.53
77003;BME280;65939;50.060;14.288;2023-08-01T02:31:43;96136.47;;;18.63;87.42
77003;BME280;65939;50.060;14.288;2023-08-01T02:33:43;96136.72;;;18.61;86.99
77003;BME280;65939;50.060;14.288;2023-08-01T02:35:46;96133.50;;;18.59;87.60
77003;BME280;65939;50.060;14.288;2023-08-01T02:37:47;96138.25;;;18.57;88.01
77003;BME280;65939;50.060;14.288;2023-08-01T02:39:48;96128.13;;;18.54;88.43
77003;BME280;65939;50.060;14.288;2023-08-01T02:41:48;96126.50;;;18.53;88.69
77003;BME280;65939;50.060;14.288;2023-08-01T02:43:49;96116.41;;;18.50;88.68
77003;BME280;65939;50.060;14.288;2023-08-01T02:45:50;96107.91;;;18.48;89.25
77003;BME280;65939;50.060;14.288;2023-08-01T02:47:50;96106.31;;;18.47;89.49
77003;BME280;65939;50.060;14.288;2023-08-01T02:49:51;96096.22;;;18.44;89.44
77003;BME280;65939;50.060;14.288;2023-08-01T02:51:52;96097.47;;;18.41;89.54
77003;BME280;65939;50.060;14.288;2023-08-01T02:53:52;96103.22;;;18.38;89.82
77003;BME280;65939;50.060;14.288;2023-08-01T02:55:53;96097.38;;;18.36;89.40
77003;BME280;65939;50.060;14.288;2023-08-01T02:57:54;96098.19;;;18.37;89.93
77003;BME280;65939;50.060;14.288;2023-08-01T02:59:54;96093.34;;;18.34;89.53
77003;BME280;65939;50.060;14.288;2023-08-01T03:01:55;96099.69;;;18.33;90.39
77003;BME280;65939;50.060;14.288;2023-08-01T03:03:55;96095.91;;;18.29;90.20
77003;BME280;65939;50.060;14.288;2023-08-01T03:05:57;96096.94;;;18.28;90.64
77003;BME280;65939;50.060;14.288;2023-08-01T03:07:57;96097.38;;;18.25;90.12
77003;BME280;65939;50.060;14.288;2023-08-01T03:09:58;96089.97;;;18.22;90.62
77003;BME280;65939;50.060;14.288;2023-08-01T03:11:59;96102.59;;;18.19;90.91
77003;BME280;65939;50.060;14.288;2023-08-01T03:13:59;96089.84;;;18.16;91.26
77003;BME280;65939;50.060;14.288;2023-08-01T03:16:00;96091.94;;;18.14;91.30
77003;BME280;65939;50.060;14.288;2023-08-01T03:18:01;96091.09;;;18.14;91.18
77003;BME280;65939;50.060;14.288;2023-08-01T03:20:02;96083.41;;;18.12;91.40
77003;BME280;65939;50.060;14.288;2023-08-01T03:22:03;96085.47;;;18.10;91.49
77003;BME280;65939;50.060;14.288;2023-08-01T03:24:05;96085.47;;;18.10;91.62
77003;BME280;65939;50.060;14.288;2023-08-01T03:26:09;96086.53;;;18.09;91.41
77003;BME280;65939;50.060;14.288;2023-08-01T03:28:09;96086.53;;;18.09;91.76
77003;BME280;65939;50.060;14.288;2023-08-01T03:30:10;96077.78;;;18.09;91.80
77003;BME280;65939;50.060;14.288;2023-08-01T03:32:11;96077.78;;;18.09;91.32
77003;BME280;65939;50.060;14.288;2023-08-01T03:34:12;96072.75;;;18.07;91.58
77003;BME280;65939;50.060;14.288;2023-08-01T03:36:13;96064.84;;;18.07;91.86
77003;BME280;65939;50.060;14.288;2023-08-01T03:38:14;96071.13;;;18.06;92.04
77003;BME280;65939;50.060;14.288;2023-08-01T03:40:14;96062.41;;;18.06;92.54
77003;BME280;65939;50.060;14.288;2023-08-01T03:42:15;96060.81;;;18.05;93.07
77003;BME280;65939;50.060;14.288;2023-08-01T03:44:16;96066.88;;;18.05;92.79
77003;BME280;65939;50.060;14.288;2023-08-01T03:46:17;96065.28;;;18.04;92.35
77003;BME280;65939;50.060;14.288;2023-08-01T03:48:18;96057.59;;;18.03;92.67
77003;BME280;65939;50.060;14.288;2023-08-01T03:50:18;96056.78;;;18.02;92.68
77003;BME280;65939;50.060;14.288;2023-08-01T03:52:19;96050.69;;;18.02;93.15
77003;BME280;65939;50.060;14.288;2023-08-01T03:54:20;96046.56;;;18.06;92.79
77003;BME280;65939;50.060;14.288;2023-08-01T03:56:20;96048.88;;;18.02;92.99
77003;BME280;65939;50.060;14.288;2023-08-01T03:58:21;96043.03;;;18.00;92.22
77003;BME280;65939;50.060;14.288;2023-08-01T04:00:22;96036.91;;;18.00;92.79
77003;BME280;65939;50.060;14.288;2023-08-01T04:02:23;96028.19;;;17.99;92.82
77003;BME280;65939;50.060;14.288;2023-08-01T04:04:23;96030.63;;;18.01;92.37
77003;BME280;65939;50.060;14.288;2023-08-01T04:06:24;96021.91;;;18.00;92.12
77003;BME280;65939;50.060;14.288;2023-08-01T04:08:25;96027.19;;;18.00;92.56
77003;BME280;65939;50.060;14.288;2023-08-01T04:10:25;96022.69;;;18.01;92.26
77003;BME280;65939;50.060;14.288;2023-08-01T04:12:26;96025.09;;;18.02;91.92
77003;BME280;65939;50.060;14.288;2023-08-01T04:14:27;96011.66;;;18.04;91.57
77003;BME280;65939;50.060;14.288;2023-08-01T04:16:27;96005.91;;;18.07;91.74
77003;BME280;65939;50.060;14.288;2023-08-01T04:18:28;96009.38;;;18.07;91.48
77003;BME280;65939;50.060;14.288;2023-08-01T04:20:29;96007.28;;;18.09;91.09
77003;BME280;65939;50.060;14.288;2023-08-01T04:22:29;96002.56;;;18.11;90.90
77003;BME280;65939;50.060;14.288;2023-08-01T04:24:30;96006.56;;;18.14;91.10
77003;BME280;65939;50.060;14.288;2023-08-01T04:26:31;96004.50;;;18.16;91.74
77003;BME280;65939;50.060;14.288;2023-08-01T04:28:32;96005.28;;;18.16;91.21
77003;BME280;65939;50.060;14.288;2023-08-01T04:30:33;95997.38;;;18.16;91.08
77003;BME280;65939;50.060;14.288;2023-08-01T04:32:34;96005.06;;;18.18;91.37
77003;BME280;65939;50.060;14.288;2023-08-01T04:34:34;95996.91;;;18.19;91.43
77003;BME280;65939;50.060;14.288;2023-08-01T04:36:35;95996.91;;;18.19;91.76
77003;BME280;65939;50.060;14.288;2023-08-01T04:38:35;96000.13;;;18.22;91.50
77003;BME280;65939;50.060;14.288;2023-08-01T04:40:36;96004.38;;;18.23;91.37
77003;BME280;65939;50.060;14.288;2023-08-01T04:42:37;95993.78;;;18.23;91.64
77003;BME280;65939;50.060;14.288;2023-08-01T04:44:37;96004.38;;;18.23;92.09
77003;BME280;65939;50.060;14.288;2023-08-01T04:46:38;96000.69;;;18.24;92.28
77003;BME280;65939;50.060;14.288;2023-08-01T04:48:39;95999.63;;;18.25;92.07
77003;BME280;65939;50.060;14.288;2023-08-01T04:50:40;96002.84;;;18.27;92.17
77003;BME280;65939;50.060;14.288;2023-08-01T04:52:40;96000.47;;;18.25;92.19
77003;BME280;65939;50.060;14.288;2023-08-01T04:54:41;95990.91;;;18.24;92.50
77003;BME280;65939;50.060;14.288;2023-08-01T04:56:42;95990.09;;;18.24;92.62
77003;BME280;65939;50.060;14.288;2023-08-01T04:58:42;95982.44;;;18.22;91.96
77003;BME280;65939;50.060;14.288;2023-08-01T05:00:43;95984.81;;;18.24;92.52
77003;BME280;65939;50.060;14.288;2023-08-01T05:02:44;95984.03;;;18.23;93.13
77003;BME280;65939;50.060;14.288;2023-08-01T05:04:44;95979.00;;;18.22;93.03
77003;BME280;65939;50.060;14.288;2023-08-01T05:06:45;95979.78;;;18.22;92.78
77003;BME280;65939;50.060;14.288;2023-08-01T05:08:46;95975.84;;;18.25;92.84
77003;BME280;65939;50.060;14.288;2023-08-01T05:10:46;95969.31;;;18.27;92.39
77003;BME280;65939;50.060;14.288;2023-08-01T05:12:47;95974.91;;;18.31;92.67
77003;BME280;65939;50.060;14.288;2023-08-01T05:14:47;95977.66;;;18.36;92.28
77003;BME280;65939;50.060;14.288;2023-08-01T05:16:48;95971.88;;;18.39;92.10
77003;BME280;65939;50.060;14.288;2023-08-01T05:18:49;95974.84;;;18.42;91.99
77003;BME280;65939;50.060;14.288;2023-08-01T05:20:50;95963.81;;;18.46;91.79
77003;BME280;65939;50.060;14.288;2023-08-01T05:22:50;95959.09;;;18.48;91.81
77003;BME280;65939;50.060;14.288;2023-08-01T05:24:51;95960.69;;;18.49;91.79
77003;BME280;65939;50.060;14.288;2023-08-01T05:26:52;95961.50;;;18.49;91.90
77003;BME280;65939;50.060;14.288;2023-08-01T05:28:52;95960.47;;;18.50;92.14
77003;BME280;65939;50.060;14.288;2023-08-01T05:30:53;95956.78;;;18.51;91.80
77003;BME280;65939;50.060;14.288;2023-08-01T05:32:54;95945.72;;;18.54;91.80
77003;BME280;65939;50.060;14.288;2023-08-01T05:34:54;95942.63;;;18.57;92.24
77003;BME280;65939;50.060;14.288;2023-08-01T05:36:55;95945.81;;;18.59;92.09
77003;BME280;65939;50.060;14.288;2023-08-01T05:38:56;95937.88;;;18.59;92.19
77003;BME280;65939;50.060;14.288;2023-08-01T05:40:57;95931.06;;;18.63;91.49
77003;BME280;65939;50.060;14.288;2023-08-01T05:42:58;95945.66;;;18.66;91.24
77003;BME280;65939;50.060;14.288;2023-08-01T05:44:59;95947.56;;;18.71;90.90
77003;BME280;65939;50.060;14.288;2023-08-01T05:47:00;95948.72;;;18.75;90.33
77003;BME280;65939;50.060;14.288;2023-08-01T05:49:00;95946.91;;;18.75;90.22
77003;BME280;65939;50.060;14.288;2023-08-01T05:51:01;95942.97;;;18.78;91.01
77003;BME280;65939;50.060;14.288;2023-08-01T05:53:02;95946.97;;;18.80;90.74
77003;BME280;65939;50.060;14.288;2023-08-01T05:55:03;95943.28;;;18.81;90.69
77003;BME280;65939;50.060;14.288;2023-08-01T05:57:05;95934.53;;;18.81;90.34
77003;BME280;65939;50.060;14.288;2023-08-01T05:59:06;95936.97;;;18.82;91.02
77003;BME280;65939;50.060;14.288;2023-08-01T06:01:06;95934.31;;;18.82;90.65
77003;BME280;65939;50.060;14.288;2023-08-01T06:03:07;95933.84;;;18.85;90.96
77003;BME280;65939;50.060;14.288;2023-08-01T06:05:08;95930.94;;;18.87;91.03
77003;BME280;65939;50.060;14.288;2023-08-01T06:07:09;95922.22;;;18.86;91.21
77003;BME280;65939;50.060;14.288;2023-08-01T06:09:09;95923.25;;;18.85;91.69
77003;BME280;65939;50.060;14.288;2023-08-01T06:11:10;95914.50;;;18.85;91.61
77003;BME280;65939;50.060;14.288;2023-08-01T06:13:11;95926.38;;;18.82;92.05
77003;BME280;65939;50.060;14.288;2023-08-01T06:15:11;95910.75;;;18.81;91.61
77003;BME280;65939;50.060;14.288;2023-08-01T06:17:12;95910.44;;;18.77;91.36
77003;BME280;65939;50.060;14.288;2023-08-01T06:19:13;95916.19;;;18.74;91.66
77003;BME280;65939;50.060;14.288;2023-08-01T06:21:13;95913.00;;;18.72;91.72
77003;BME280;65939;50.060;14.288;2023-08-01T06:23:14;95911.84;;;18.68;91.64
77003;BME280;65939;50.060;14.288;2023-08-01T06:25:14;95911.75;;;18.63;92.01
77003;BME280;65939;50.060;14.288;2023-08-01T06:27:15;95915.44;;;18.62;92.26
77003;BME280;65939;50.060;14.288;2023-08-01T06:29:16;95920.97;;;18.60;92.36
77003;BME280;65939;50.060;14.288;2023-08-01T06:31:17;95914.34;;;18.58;92.52
77003;BME280;65939;50.060;14.288;2023-08-01T06:33:18;95918.00;;;18.57;92.36
77003;BME280;65939;50.060;14.288;2023-08-01T06:35:18;95914.09;;;18.59;92.63
77003;BME280;65939;50.060;14.288;2023-08-01T06:37:19;95917.84;;;18.63;92.69
77003;BME280;65939;50.060;14.288;2023-08-01T06:39:20;95914.97;;;18.65;92.74
77003;BME280;65939;50.060;14.288;2023-08-01T06:41:21;95907.59;;;18.67;92.07
77003;BME280;65939;50.060;14.288;2023-08-01T06:43:21;95906.09;;;18.71;92.73
77003;BME280;65939;50.060;14.288;2023-08-01T06:45:24;95904.59;;;18.75;92.39
77003;BME280;65939;50.060;14.288;2023-08-01T06:47:25;95892.50;;;18.79;92.53
77003;BME280;65939;50.060;14.288;2023-08-01T06:49:26;95903.38;;;18.83;92.10
77003;BME280;65939;50.060;14.288;2023-08-01T06:51:26;95891.84;;;18.89;91.57
77003;BME280;65939;50.060;14.288;2023-08-01T06:53:27;95892.97;;;18.93;91.13
77003;BME280;65939;50.060;14.288;2023-08-01T06:55:28;95893.50;;;18.95;91.01
77003;BME280;65939;50.060;14.288;2023-08-01T06:57:28;95886.13;;;18.97;90.30
77003;BME280;65939;50.060;14.288;2023-08-01T06:59:29;95885.88;;;18.99;90.32
77003;BME280;65939;50.060;14.288;2023-08-01T07:01:30;95884.59;;;19.01;90.74
77003;BME280;65939;50.060;14.288;2023-08-01T07:03:31;95883.56;;;19.02;90.41
77003;BME280;65939;50.060;14.288;2023-08-01T07:05:31;95889.94;;;19.06;90.84
77003;BME280;65939;50.060;14.288;2023-08-01T07:07:32;95891.88;;;19.11;90.45
77003;BME280;65939;50.060;14.288;2023-08-01T07:09:33;95883.47;;;19.14;91.11
77003;BME280;65939;50.060;14.288;2023-08-01T07:11:33;95887.44;;;19.17;90.09
77003;BME280;65939;50.060;14.288;2023-08-01T07:13:34;95893.31;;;19.19;89.89
77003;BME280;65939;50.060;14.288;2023-08-01T07:15:35;95896.50;;;19.21;90.57
77003;BME280;65939;50.060;14.288;2023-08-01T07:17:35;95889.69;;;19.25;90.54
77003;BME280;65939;50.060;14.288;2023-08-01T07:19:36;95887.09;;;19.30;90.77
77003;BME280;65939;50.060;14.288;2023-08-01T07:21:37;95889.25;;;19.33;90.54
77003;BME280;65939;50.060;14.288;2023-08-01T07:23:37;95890.63;;;19.35;90.71
77003;BME280;65939;50.060;14.288;2023-08-01T07:25:38;95887.22;;;19.40;91.28
77003;BME280;65939;50.060;14.288;2023-08-01T07:27:39;95889.13;;;19.45;91.17
77003;BME280;65939;50.060;14.288;2023-08-01T07:29:39;95889.69;;;19.47;89.68
77003;BME280;65939;50.060;14.288;2023-08-01T07:31:40;95876.47;;;19.47;90.28
77003;BME280;65939;50.060;14.288;2023-08-01T07:33:41;95868.75;;;19.45;89.88
77003;BME280;65939;50.060;14.288;2023-08-01T07:35:41;95875.38;;;19.43;90.43
77003;BME280;65939;50.060;14.288;2023-08-01T07:37:42;95878.31;;;19.46;90.86
77003;BME280;65939;50.060;14.288;2023-08-01T07:39:42;95871.16;;;19.47;90.61
77003;BME280;65939;50.060;14.288;2023-08-01T07:41:43;95881.19;;;19.45;91.11
77003;BME280;65939;50.060;14.288;2023-08-01T07:43:44;95880.41;;;19.44;90.70
77003;BME280;65939;50.060;14.288;2023-08-01T07:45:45;95871.41;;;19.45;91.53
77003;BME280;65939;50.060;14.288;2023-08-01T07:47:46;95876.47;;;19.47;92.11
77003;BME280;65939;50.060;14.288;2023-08-01T07:49:46;95873.81;;;19.47;91.71
77003;BME280;65939;50.060;14.288;2023-08-01T07:51:47;95882.28;;;19.49;91.92
77003;BME280;65939;50.060;14.288;2023-08-01T07:53:48;95877.88;;;19.54;91.44
77003;BME280;65939;50.060;14.288;2023-08-01T07:55:48;95877.91;;;19.59;91.61
77003;BME280;65939;50.060;14.288;2023-08-01T07:57:49;95877.47;;;19.63;91.39
77003;BME280;65939;50.060;14.288;2023-08-01T07:59:50;95876.41;;;19.64;91.77
77003;BME280;65939;50.060;14.288;2023-08-01T08:01:51;95876.72;;;19.67;91.74
77003;BME280;65939;50.060;14.288;2023-08-01T08:03:53;95886.50;;;19.67;91.72
77003;BME280;65939;50.060;14.288;2023-08-01T08:05:54;95886.44;;;19.61;91.40
77003;BME280;65939;50.060;14.288;2023-08-01T08:07:54;95881.88;;;19.57;90.86
77003;BME280;65939;50.060;14.288;2023-08-01T08:09:55;95885.19;;;19.47;91.58
77003;BME280;65939;50.060;14.288;2023-08-01T08:11:56;95887.22;;;19.40;91.52
77003;BME280;65939;50.060;14.288;2023-08-01T08:14:00;95887.16;;;19.35;91.52
77003;BME280;65939;50.060;14.288;2023-08-01T08:16:00;95887.09;;;19.30;92.13
77003;BME280;65939;50.060;14.288;2023-08-01T08:18:01;95892.34;;;19.25;92.53
77003;BME280;65939;50.060;14.288;2023-08-01T08:20:05;95901.72;;;19.16;92.55
77003;BME280;65939;50.060;14.288;2023-08-01T08:22:06;95893.47;;;19.12;92.81
77003;BME280;65939;50.060;14.288;2023-08-01T08:24:07;95894.53;;;19.11;93.19
77003;BME280;65939;50.060;14.288;2023-08-01T08:26:08;95891.09;;;19.10;92.81
77003;BME280;65939;50.060;14.288;2023-08-01T08:28:08;95891.56;;;19.07;93.68
77003;BME280;65939;50.060;14.288;2023-08-01T08:30:09;95883.16;;;19.10;94.05
77003;BME280;65939;50.060;14.288;2023-08-01T08:32:10;95897.50;;;19.14;94.28
77003;BME280;65939;50.060;14.288;2023-08-01T08:34:10;95891.78;;;19.23;94.42
77003;BME280;65939;50.060;14.288;2023-08-01T08:36:11;95895.03;;;19.30;94.32
77003;BME280;65939;50.060;14.288;2023-08-01T08:38:12;95885.34;;;19.35;94.39
77003;BME280;65939;50.060;14.288;2023-08-01T08:40:12;95891.16;;;19.37;93.83
77003;BME280;65939;50.060;14.288;2023-08-01T08:42:18;95884.50;;;19.35;92.87
77003;BME280;65939;50.060;14.288;2023-08-01T08:44:20;95898.00;;;19.33;93.56
77003;BME280;65939;50.060;14.288;2023-08-01T08:46:28;95892.75;;;19.38;93.75
77003;BME280;65939;50.060;14.288;2023-08-01T08:48:29;95892.03;;;19.43;93.58
77003;BME280;65939;50.060;14.288;2023-08-01T08:50:33;95895.31;;;19.50;93.27
77003;BME280;65939;50.060;14.288;2023-08-01T08:52:34;95890.31;;;19.54;92.85
77003;BME280;65939;50.060;14.288;2023-08-01T08:54:35;95901.75;;;19.59;93.23
77003;BME280;65939;50.060;14.288;2023-08-01T08:56:37;95892.28;;;19.64;93.38
77003;BME280;65939;50.060;14.288;2023-08-01T08:58:40;95889.72;;;19.69;92.68
77003;BME280;65939;50.060;14.288;2023-08-01T09:00:41;95896.91;;;19.73;92.24
77003;BME280;65939;50.060;14.288;2023-08-01T09:02:42;95899.38;;;19.80;91.57
77003;BME280;65939;50.060;14.288;2023-08-01T09:04:43;95897.34;;;19.87;91.35
77003;BME280;65939;50.060;14.288;2023-08-01T09:06:47;95901.16;;;19.96;91.06
77003;BME280;65939;50.060;14.288;2023-08-01T09:09:12;95895.13;;;20.06;91.09
77003;BME280;65939;50.060;14.288;2023-08-01T09:11:13;95895.72;;;20.13;90.86
77003;BME280;65939;50.060;14.288;2023-08-01T09:13:14;95902.34;;;20.11;88.85
77003;BME280;65939;50.060;14.288;2023-08-01T09:15:16;95898.34;;;20.08;88.83
77003;BME280;65939;50.060;14.288;2023-08-01T09:17:16;95905.19;;;20.04;88.94
77003;BME280;65939;50.060;14.288;2023-08-01T09:19:24;95909.22;;;20.06;89.18
77003;BME280;65939;50.060;14.288;2023-08-01T09:21:26;95898.66;;;20.12;nan
77003;BME280;65939;50.060;14.288;2023-08-01T09:23:27;95906.63;;;20.17;nan
77003;BME280;65939;50.060;14.288;2023-08-01T09:25:31;95904.53;;;20.19;87.78
77003;BME280;65939;50.060;14.288;2023-08-01T09:27:35;95898.25;;;20.25;88.45
77003;BME280;65939;50.060;14.288;2023-08-01T09:29:35;95897.31;;;20.41;88.32
77003;BME280;65939;50.060;14.288;2023-08-01T09:31:38;95895.38;;;20.59;88.21
77003;BME280;65939;50.060;14.288;2023-08-01T09:33:42;95887.78;;;20.72;87.75
77003;BME280;65939;50.060;14.288;2023-08-01T09:35:43;95874.84;;;20.81;86.12
77003;BME280;65939;50.060;14.288;2023-08-01T09:37:47;95887.16;;;20.92;86.51
77003;BME280;65939;50.060;14.288;2023-08-01T09:39:55;95877.69;;;21.07;85.39
77003;BME280;65939;50.060;14.288;2023-08-01T09:42:01;95885.22;;;21.25;84.55
77003;BME280;65939;50.060;14.288;2023-08-01T09:44:02;95887.44;;;21.43;84.08
77003;BME280;65939;50.060;14.288;2023-08-01T09:46:06;95883.53;;;21.61;83.73
77003;BME280;65939;50.060;14.288;2023-08-01T09:48:07;95887.59;;;21.79;83.04
77003;BME280;65939;50.060;14.288;2023-08-01T09:50:19;95886.81;;;21.89;81.84
77003;BME280;65939;50.060;14.288;2023-08-01T09:52:29;95881.53;;;21.99;82.37
77003;BME280;65939;50.060;14.288;2023-08-01T09:54:30;95883.38;;;21.93;81.17
77003;BME280;65939;50.060;14.288;2023-08-01T09:56:31;95882.28;;;21.94;81.99
77003;BME280;65939;50.060;14.288;2023-08-01T09:58:33;95876.75;;;22.01;81.29
77003;BME280;65939;50.060;14.288;2023-08-01T10:00:35;95873.28;;;22.00;80.75
77003;BME280;65939;50.060;14.288;2023-08-01T10:02:38;95874.34;;;22.05;81.13
77003;BME280;65939;50.060;14.288;2023-08-01T10:04:42;95880.19;;;22.02;80.17
77003;BME280;65939;50.060;14.288;2023-08-01T10:06:48;95880.72;;;21.93;79.89
77003;BME280;65939;50.060;14.288;2023-08-01T10:08:52;95891.84;;;21.90;79.22
77003;BME280;65939;50.060;14.288;2023-08-01T10:10:53;95878.56;;;21.85;79.38
77003;BME280;65939;50.060;14.288;2023-08-01T10:12:57;95881.22;;;21.90;80.05
77003;BME280;65939;50.060;14.288;2023-08-01T10:14:59;95875.16;;;22.00;79.11
77003;BME280;65939;50.060;14.288;2023-08-01T10:17:02;95872.75;;;22.09;80.04
77003;BME280;65939;50.060;14.288;2023-08-01T10:19:06;95877.34;;;22.23;79.57
77003;BME280;65939;50.060;14.288;2023-08-01T10:21:16;95889.06;;;22.38;79.10
77003;BME280;65939;50.060;14.288;2023-08-01T10:23:19;95884.81;;;22.47;77.95
77003;BME280;65939;50.060;14.288;2023-08-01T10:25:20;95871.25;;;22.54;77.35
77003;BME280;65939;50.060;14.288;2023-08-01T10:27:22;95868.31;;;22.55;77.26
77003;BME280;65939;50.060;14.288;2023-08-01T10:29:34;95866.44;;;22.61;77.73
77003;BME280;65939;50.060;14.288;2023-08-01T10:31:35;95859.00;;;22.53;77.15
77003;BME280;65939;50.060;14.288;2023-08-01T10:33:41;95856.63;;;22.46;77.79